createdAt,value
2023-04-23T00:00:51.464Z,9.27
2023-04-23T00:04:54.352Z,10.07
2023-04-23T00:08:56.228Z,10.00
2023-04-23T00:12:59.251Z,8.87
2023-04-23T00:17:01.159Z,8.47
2023-04-23T00:21:02.877Z,9.77
2023-04-23T00:25:04.876Z,8.53
2023-04-23T00:29:07.228Z,8.10
2023-04-23T00:33:09.065Z,9.00
2023-04-23T00:37:10.816Z,9.97
2023-04-23T00:41:12.609Z,8.10
2023-04-23T00:45:14.392Z,8.63
2023-04-23T00:49:16.166Z,9.57
2023-04-23T00:53:17.959Z,8.90
2023-04-23T00:57:19.872Z,8.27
2023-04-23T01:01:21.726Z,7.87
2023-04-23T01:05:23.478Z,8.57
2023-04-23T01:09:27.635Z,8.30
2023-04-23T01:13:30.325Z,7.03
2023-04-23T01:17:34.497Z,9.83
2023-04-23T01:21:36.901Z,8.20
2023-04-23T01:25:38.750Z,9.27
2023-04-23T01:29:40.535Z,7.17
2023-04-23T01:33:42.442Z,7.40
2023-04-23T01:37:44.136Z,9.13
2023-04-23T01:41:46.314Z,7.70
2023-04-23T01:45:48.006Z,8.77
2023-04-23T01:49:49.753Z,7.50
2023-04-23T01:53:51.637Z,8.13
2023-04-23T01:57:53.527Z,7.57
2023-04-23T02:02:02.304Z,8.03
2023-04-23T02:06:11.216Z,8.50
2023-04-23T02:10:27.260Z,8.80
2023-04-23T02:14:36.217Z,7.67
2023-04-23T02:18:44.211Z,6.63
2023-04-23T02:22:53.231Z,8.90
2023-04-23T02:26:55.152Z,7.30
2023-04-23T02:30:56.893Z,7.73
2023-04-23T02:35:02.096Z,9.13
2023-04-23T02:39:03.978Z,7.50
2023-04-23T02:43:05.801Z,7.27
2023-04-23T02:47:07.673Z,7.60
2023-04-23T02:51:10.878Z,7.50
2023-04-23T02:55:12.825Z,9.20
2023-04-23T02:59:14.504Z,6.83
2023-04-23T03:03:17.165Z,9.63
2023-04-23T03:07:19.077Z,6.47
2023-04-23T03:11:21.223Z,7.03
2023-04-23T03:15:23.060Z,7.53
2023-04-23T03:19:24.810Z,9.50
2023-04-23T03:23:26.657Z,8.50
2023-04-23T03:27:28.465Z,8.30
2023-04-23T03:31:30.277Z,8.73
2023-04-23T03:35:32.020Z,7.60
2023-04-23T03:39:33.746Z,8.57
2023-04-23T03:43:35.921Z,7.87
2023-04-23T03:47:37.794Z,6.93
2023-04-23T03:51:39.632Z,8.30
2023-04-23T03:55:41.443Z,7.57
2023-04-23T03:59:43.258Z,9.07
2023-04-23T04:03:45.162Z,8.70
2023-04-23T04:07:47.104Z,8.73
2023-04-23T04:11:48.823Z,7.57
2023-04-23T04:15:50.606Z,9.43
2023-04-23T04:19:52.549Z,6.83
2023-04-23T04:23:54.665Z,8.83
2023-04-23T04:27:57.871Z,8.47
2023-04-23T04:32:00.510Z,8.70
2023-04-23T04:36:02.351Z,7.77
2023-04-23T04:40:05.211Z,8.43
2023-04-23T04:44:08.574Z,7.50
2023-04-23T04:48:10.407Z,9.07
2023-04-23T04:52:12.152Z,10.13
2023-04-23T04:56:13.837Z,7.97
2023-04-23T05:00:22.451Z,7.50
2023-04-23T05:04:24.241Z,10.00
2023-04-23T05:08:26.008Z,7.37
2023-04-23T05:12:27.777Z,8.43
2023-04-23T05:16:29.513Z,8.70
2023-04-23T05:20:31.274Z,7.10
2023-04-23T05:24:33.052Z,9.47
2023-04-23T05:28:34.747Z,7.20
2023-04-23T05:32:36.777Z,7.97
2023-04-23T05:36:38.590Z,9.13
2023-04-23T05:40:40.381Z,8.93
2023-04-23T05:44:42.648Z,9.70
2023-04-23T05:48:44.560Z,8.33
2023-04-23T05:52:46.382Z,9.63
2023-04-23T05:56:48.304Z,7.43
2023-04-23T06:00:50.273Z,8.70
2023-04-23T06:04:55.023Z,7.27
2023-04-23T06:08:57.726Z,8.77
2023-04-23T06:12:59.484Z,7.00
2023-04-23T06:17:01.385Z,6.57
2023-04-23T06:21:04.365Z,7.05
2023-04-23T06:25:06.614Z,5.68
2023-04-23T06:29:08.429Z,6.20
2023-04-23T06:33:10.767Z,5.90
2023-04-23T06:37:13.202Z,3.97
2023-04-23T06:41:15.678Z,3.20
2023-04-23T06:45:17.576Z,3.17
2023-04-23T06:49:19.457Z,2.60
2023-04-23T06:53:22.141Z,3.07
2023-04-23T06:57:24.249Z,3.00
2023-04-23T07:01:28.577Z,2.70
2023-04-23T07:05:30.511Z,3.30
2023-04-23T07:09:36.988Z,2.60
2023-04-23T07:13:49.622Z,3.73
2023-04-23T07:17:56.183Z,2.60
2023-04-23T07:22:00.645Z,3.50
2023-04-23T07:26:04.824Z,2.43
2023-04-23T07:30:14.278Z,2.40
2023-04-23T07:34:16.034Z,2.40
2023-04-23T07:38:22.175Z,3.33
2023-04-23T07:42:25.775Z,3.07
2023-04-23T07:46:33.133Z,3.57
2023-04-23T07:50:37.760Z,2.60
2023-04-23T07:54:39.660Z,2.60
2023-04-23T07:58:41.446Z,2.50
2023-04-23T08:02:43.302Z,2.80
2023-04-23T08:06:45.274Z,2.10
2023-04-23T08:10:47.128Z,2.15
2023-04-23T08:14:50.974Z,1.65
2023-04-23T08:19:04.230Z,2.00
2023-04-23T08:23:07.404Z,2.00
2023-04-23T08:27:09.155Z,1.50
2023-04-23T08:31:25.923Z,1.92
2023-04-23T08:35:29.051Z,1.35
2023-04-23T08:39:33.039Z,2.83
2023-04-23T08:43:43.635Z,1.63
2023-04-23T08:47:48.862Z,2.50
2023-04-23T08:51:54.322Z,2.53
2023-04-23T08:56:04.709Z,1.50
2023-04-23T09:00:11.091Z,2.30
2023-04-23T09:04:16.947Z,1.37
2023-04-23T09:08:20.715Z,1.97
2023-04-23T09:12:22.492Z,1.57
2023-04-23T09:16:24.290Z,2.03
2023-04-23T09:20:26.136Z,1.63
2023-04-23T09:24:29.030Z,1.10
2023-04-23T09:28:37.324Z,1.00
2023-04-23T09:36:46.613Z,1.57
2023-04-23T09:40:48.257Z,1.67
2023-04-23T09:45:12.211Z,0.90
2023-04-23T09:49:14.157Z,0.80
2023-04-23T09:53:18.320Z,0.70
2023-04-23T09:57:20.176Z,2.13
2023-04-23T10:01:28.826Z,1.20
2023-04-23T10:05:37.261Z,2.13
2023-04-23T10:09:47.274Z,1.07
2023-04-23T10:13:49.403Z,1.00
2023-04-23T10:17:53.114Z,1.50
2023-04-23T10:26:04.252Z,1.43
2023-04-23T10:30:06.953Z,1.00
2023-04-23T10:34:10.358Z,0.70
2023-04-23T10:38:12.312Z,0.80
2023-04-23T10:42:14.080Z,1.77
2023-04-23T10:46:29.499Z,1.90
2023-04-23T10:50:37.854Z,0.80
2023-04-23T10:54:41.855Z,1.93
2023-04-23T10:58:51.950Z,0.83
2023-04-23T11:02:54.140Z,1.90
2023-04-23T11:07:08.182Z,2.03
2023-04-23T11:11:41.703Z,0.70
2023-04-23T11:15:46.795Z,1.10
2023-04-23T11:20:43.245Z,1.30
2023-04-23T11:24:51.032Z,2.23
2023-04-23T11:28:52.900Z,1.73
2023-04-23T11:33:14.129Z,1.10
2023-04-23T11:37:33.390Z,0.97
2023-04-23T11:41:58.164Z,1.27
2023-04-23T11:46:08.178Z,1.30
2023-04-23T11:50:15.773Z,1.80
2023-04-23T11:54:39.788Z,1.60
2023-04-23T11:58:47.752Z,1.00
2023-04-23T12:03:03.393Z,1.13
2023-04-23T12:08:00.653Z,0.90
2023-04-23T12:18:55.720Z,1.17
2023-04-23T12:22:06.682Z,1.27
2023-04-23T12:26:22.423Z,1.50
2023-04-23T12:30:24.513Z,1.10
2023-04-23T12:34:51.282Z,1.30
2023-04-23T12:38:53.025Z,2.33
2023-04-23T12:43:09.634Z,1.97
2023-04-23T12:47:20.415Z,2.00
2023-04-23T12:51:33.127Z,1.30
2023-04-23T12:55:35.099Z,0.87
2023-04-23T12:59:49.569Z,0.80
2023-04-23T13:03:51.588Z,1.17
2023-04-23T13:07:58.588Z,0.90
2023-04-23T13:12:10.188Z,1.10
2023-04-23T13:16:14.572Z,1.40
2023-04-23T13:20:19.042Z,0.80
2023-04-23T13:24:20.997Z,0.90
2023-04-23T13:28:26.536Z,1.20
2023-04-23T13:32:46.158Z,1.00
2023-04-23T13:36:50.472Z,1.40
2023-04-23T13:41:10.602Z,1.20
2023-04-23T13:45:34.523Z,1.00
2023-04-23T13:49:42.492Z,1.40
2023-04-23T13:53:44.554Z,1.10
2023-04-23T13:58:01.061Z,1.93
2023-04-23T14:02:10.040Z,1.10
2023-04-23T14:06:39.635Z,1.20
2023-04-23T14:10:51.160Z,1.40
2023-04-23T14:14:55.883Z,1.00
2023-04-23T14:19:03.686Z,1.00
2023-04-23T14:23:57.868Z,0.80
2023-04-23T14:28:17.049Z,1.03
2023-04-23T14:32:23.522Z,1.17
2023-04-23T14:36:37.037Z,1.07
2023-04-23T14:40:38.966Z,1.40
2023-04-23T14:44:41.959Z,1.63
2023-04-23T14:48:44.160Z,0.90
2023-04-23T14:53:00.776Z,1.00
2023-04-23T14:57:03.008Z,0.93
2023-04-23T15:01:07.985Z,1.10
2023-04-23T15:05:12.710Z,1.10
2023-04-23T15:09:14.503Z,1.00
2023-04-23T15:13:45.754Z,1.40
2023-04-23T15:17:48.710Z,1.40
2023-04-23T15:21:54.851Z,1.60
2023-04-23T15:25:56.664Z,1.10
2023-04-23T15:30:00.893Z,3.00
2023-04-23T15:34:12.998Z,1.20
2023-04-23T15:38:16.546Z,1.20
2023-04-23T15:42:27.318Z,1.63
2023-04-23T15:46:29.019Z,1.70
2023-04-23T15:50:49.269Z,1.90
2023-04-23T15:54:56.354Z,1.53
2023-04-23T15:58:58.222Z,2.20
2023-04-23T16:03:10.646Z,1.40
2023-04-23T16:07:15.852Z,2.30
2023-04-23T16:11:23.401Z,1.60
2023-04-23T16:15:32.147Z,1.40
2023-04-23T16:19:34.299Z,1.50
2023-04-23T16:23:41.906Z,1.57
2023-04-23T16:27:44.255Z,1.80
2023-04-23T16:31:48.157Z,1.73
2023-04-23T16:36:00.857Z,1.53
2023-04-23T16:40:06.409Z,1.50
2023-04-23T16:44:13.915Z,1.70
2023-04-23T16:48:26.374Z,2.13
2023-04-23T16:52:28.409Z,3.63
2023-04-23T16:56:30.270Z,2.80
2023-04-23T17:00:44.575Z,2.10
2023-04-23T17:04:50.102Z,2.47
2023-04-23T17:09:06.498Z,2.50
2023-04-23T17:13:19.623Z,3.80
2023-04-23T17:17:27.682Z,2.70
2023-04-23T17:21:31.719Z,2.60
2023-04-23T17:25:53.842Z,2.70
2023-04-23T17:31:03.620Z,2.83
2023-04-23T17:34:42.968Z,4.50
2023-04-23T17:38:48.044Z,7.93
2023-04-23T17:42:51.968Z,8.90
2023-04-23T17:46:59.221Z,8.63
2023-04-23T17:51:03.169Z,7.57
2023-04-23T17:55:05.690Z,8.83
2023-04-23T17:59:07.690Z,11.80
2023-04-23T18:03:12.308Z,10.93
2023-04-23T18:07:14.068Z,7.77
2023-04-23T18:11:16.903Z,7.93
2023-04-23T18:15:25.773Z,5.90
2023-04-23T18:19:29.678Z,5.60
2023-04-23T18:23:36.035Z,5.03
2023-04-23T18:27:40.908Z,5.13
2023-04-23T18:31:42.913Z,4.50
2023-04-23T18:35:47.188Z,5.67
2023-04-23T18:39:49.204Z,4.27
2023-04-23T18:43:51.574Z,4.27
2023-04-23T18:48:30.845Z,4.20
2023-04-23T18:52:32.635Z,4.43
2023-04-23T18:56:34.727Z,5.00
2023-04-23T19:00:36.591Z,4.20
2023-04-23T19:04:41.311Z,5.17
2023-04-23T19:08:43.586Z,5.17
2023-04-23T19:12:49.162Z,5.07
2023-04-23T19:16:51.352Z,4.77
2023-04-23T19:20:53.333Z,5.40
2023-04-23T19:24:55.153Z,4.30
2023-04-23T19:28:57.231Z,4.50
2023-04-23T19:32:59.271Z,4.60
2023-04-23T19:37:02.352Z,4.90
2023-04-23T19:41:04.169Z,4.97
2023-04-23T19:45:06.557Z,5.57
2023-04-23T19:49:08.318Z,4.90
2023-04-23T19:53:10.115Z,5.80
2023-04-23T19:57:15.027Z,5.57
2023-04-23T20:01:17.925Z,5.27
2023-04-23T20:05:20.058Z,5.17
2023-04-23T20:09:24.350Z,5.30
2023-04-23T20:13:29.497Z,6.57
2023-04-23T20:17:31.493Z,5.87
2023-04-23T20:21:37.697Z,5.93
2023-04-23T20:25:40.253Z,5.80
2023-04-23T20:29:42.379Z,5.80
2023-04-23T20:33:47.328Z,5.93
2023-04-23T20:37:49.764Z,5.20
2023-04-23T20:41:55.602Z,5.30
2023-04-23T20:45:57.806Z,5.10
2023-04-23T20:49:59.768Z,5.00
2023-04-23T20:54:01.812Z,4.87
2023-04-23T20:58:03.599Z,4.80
2023-04-23T21:02:07.264Z,4.87
2023-04-23T21:06:14.577Z,6.10
2023-04-23T21:10:16.311Z,5.27
2023-04-23T21:14:18.061Z,5.43
2023-04-23T21:18:19.713Z,5.13
2023-04-23T21:22:21.483Z,6.33
2023-04-23T21:26:23.758Z,5.63
2023-04-23T21:30:29.694Z,6.03
2023-04-23T21:34:31.545Z,8.67
2023-04-23T21:38:33.490Z,5.40
2023-04-23T21:42:35.628Z,5.67
2023-04-23T21:46:37.739Z,6.23
2023-04-23T21:50:39.434Z,6.33
2023-04-23T21:54:41.139Z,5.77
2023-04-23T21:58:43.104Z,6.40
2023-04-23T22:02:48.546Z,6.90
2023-04-23T22:06:51.229Z,7.10
2023-04-23T22:10:52.998Z,8.90
2023-04-23T22:14:54.694Z,7.27
2023-04-23T22:18:57.269Z,7.53
2023-04-23T22:22:59.118Z,7.17
2023-04-23T22:27:01.985Z,7.50
2023-04-23T22:31:04.314Z,7.50
2023-04-23T22:35:09.064Z,7.67
2023-04-23T22:39:10.851Z,8.23
2023-04-23T22:43:12.781Z,7.50
2023-04-23T22:47:14.660Z,7.97
2023-04-23T22:51:17.612Z,7.47
2023-04-23T22:55:19.302Z,7.70
2023-04-23T22:59:21.192Z,9.00
2023-04-23T23:03:23.054Z,7.03
2023-04-23T23:07:24.917Z,7.57
2023-04-23T23:11:28.766Z,8.20
2023-04-23T23:15:30.476Z,7.40
2023-04-23T23:19:32.195Z,6.90
2023-04-23T23:23:34.084Z,8.47
2023-04-23T23:27:35.781Z,7.00
2023-04-23T23:31:37.553Z,6.40
2023-04-23T23:35:39.299Z,7.60
2023-04-23T23:39:41.399Z,7.97
2023-04-23T23:43:43.298Z,6.83
2023-04-23T23:47:45.742Z,6.80
2023-04-23T23:51:47.536Z,6.07
2023-04-23T23:55:49.617Z,5.73
2023-04-23T23:59:51.434Z,6.53
